createdAt,value
2023-10-26T01:43:48.483Z,14.60
2023-10-26T01:47:33.268Z,15.30
2023-10-26T01:54:46.208Z,14.20
2023-10-26T02:58:15.134Z,11.30
2023-10-26T03:01:41.470Z,11.80
2023-10-26T03:11:39.818Z,13.90
2023-10-26T03:18:47.515Z,13.30
2023-10-26T05:02:46.722Z,17.60
2023-10-26T05:05:18.016Z,17.30
2023-10-26T05:07:46.513Z,19.00
2023-10-26T05:10:14.342Z,18.40
2023-10-26T05:12:42.035Z,18.40
2023-10-26T05:15:13.364Z,18.60
2023-10-26T05:17:43.230Z,17.90
2023-10-26T05:20:13.126Z,17.10
2023-10-26T05:22:47.063Z,17.30
2023-10-26T05:25:16.795Z,16.50
2023-10-26T05:27:45.868Z,18.00
2023-10-26T05:30:14.596Z,16.80
2023-10-26T05:32:43.059Z,16.00
2023-10-26T05:35:13.040Z,16.00
2023-10-26T05:37:42.448Z,15.10
2023-10-26T05:40:14.359Z,15.10
2023-10-26T05:42:45.927Z,16.90
2023-10-26T05:45:15.193Z,14.40
2023-10-26T05:47:52.621Z,16.10
2023-10-26T05:50:23.612Z,15.10
2023-10-26T05:52:53.394Z,15.00
2023-10-26T05:55:25.610Z,14.50
2023-10-26T05:57:56.918Z,14.40
2023-10-26T06:00:30.931Z,13.00
2023-10-26T06:03:01.559Z,14.60
2023-10-26T06:05:32.135Z,14.10
2023-10-26T06:08:01.847Z,11.30
2023-10-26T06:10:29.631Z,11.80
2023-10-26T06:12:57.009Z,12.00
2023-10-26T06:15:24.680Z,11.40
2023-10-26T06:17:52.400Z,11.80
2023-10-26T06:20:19.922Z,11.00
2023-10-26T06:22:47.366Z,9.70
2023-10-26T06:25:15.176Z,8.70
2023-10-26T06:27:42.489Z,8.40
2023-10-26T06:30:10.178Z,7.00
2023-10-26T06:32:37.851Z,6.10
2023-10-26T06:35:06.004Z,7.40
2023-10-26T06:37:33.670Z,4.90
2023-10-26T06:40:01.004Z,6.10
2023-10-26T06:42:28.398Z,4.10
2023-10-26T06:44:56.081Z,3.90
2023-10-26T06:47:23.505Z,3.50
2023-10-26T06:49:51.349Z,2.70
2023-10-26T06:52:18.692Z,2.90
2023-10-26T06:54:49.426Z,2.00
2023-10-26T06:57:17.376Z,1.90
2023-10-26T06:59:44.780Z,2.00
2023-10-26T07:02:13.154Z,1.50
2023-10-26T07:04:40.885Z,1.50
2023-10-26T07:07:08.917Z,1.50
2023-10-26T07:09:37.920Z,1.10
2023-10-26T07:12:06.033Z,1.10
2023-10-26T07:14:33.374Z,1.20
2023-10-26T07:17:00.833Z,1.60
2023-10-26T07:19:28.306Z,1.30
2023-10-26T07:21:55.651Z,1.30
2023-10-26T07:24:23.140Z,1.60
2023-10-26T07:26:51.135Z,1.50
2023-10-26T07:29:18.616Z,1.10
2023-10-26T07:31:48.008Z,1.60
2023-10-26T07:34:17.991Z,1.10
2023-10-26T07:36:45.598Z,1.60
2023-10-26T07:39:46.532Z,1.40
2023-10-26T07:42:08.706Z,1.50
2023-10-26T07:44:38.593Z,1.50
2023-10-26T07:47:09.495Z,2.10
2023-10-26T07:49:37.279Z,2.10
2023-10-26T07:52:05.004Z,2.40
2023-10-26T07:54:32.849Z,2.00
2023-10-26T07:57:00.463Z,1.70
2023-10-26T07:59:30.343Z,1.20
2023-10-26T08:01:57.792Z,1.10
2023-10-26T08:04:25.213Z,1.20
2023-10-26T08:06:53.554Z,0.90
2023-10-26T08:09:21.151Z,0.90
2023-10-26T08:11:49.191Z,1.30
2023-10-26T08:14:42.420Z,1.00
2023-10-26T08:17:04.168Z,0.80
2023-10-26T08:19:31.812Z,0.70
2023-10-26T08:21:59.461Z,1.10
2023-10-26T08:24:30.683Z,0.60
2023-10-26T08:26:58.254Z,0.70
2023-10-26T08:29:28.759Z,0.50
2023-10-26T08:31:57.976Z,0.80
2023-10-26T08:34:28.887Z,0.60
2023-10-26T08:37:12.511Z,0.60
2023-10-26T08:39:43.088Z,0.60
2023-10-26T08:42:17.078Z,0.70
2023-10-26T08:44:51.131Z,0.70
2023-10-26T08:47:22.603Z,0.70
2023-10-26T08:50:12.327Z,0.80
2023-10-26T08:52:43.734Z,0.80
2023-10-26T08:55:11.296Z,1.10
2023-10-26T08:57:51.307Z,0.60
2023-10-26T09:00:19.543Z,0.60
2023-10-26T09:02:51.078Z,0.60
2023-10-26T09:05:19.259Z,1.00
2023-10-26T09:07:47.037Z,0.60
2023-10-26T09:10:33.545Z,0.90
2023-10-26T09:13:08.693Z,0.70
2023-10-26T09:15:51.380Z,0.60
2023-10-26T09:18:22.076Z,0.50
2023-10-26T09:21:09.171Z,0.60
2023-10-26T09:23:41.113Z,0.90
2023-10-26T09:26:11.192Z,0.60
2023-10-26T09:29:10.332Z,0.90
2023-10-26T09:31:57.607Z,0.70
2023-10-26T09:34:27.999Z,0.90
2023-10-26T09:37:06.940Z,0.70
2023-10-26T09:39:38.360Z,1.00
2023-10-26T09:42:11.542Z,0.90
2023-10-26T09:44:40.297Z,0.90
2023-10-26T09:47:08.523Z,1.20
2023-10-26T09:49:36.133Z,1.00
2023-10-26T09:52:04.225Z,1.00
2023-10-26T09:54:38.712Z,1.10
2023-10-26T09:57:46.514Z,1.00
2023-10-26T10:00:37.452Z,0.80
2023-10-26T10:03:15.064Z,0.90
2023-10-26T10:05:48.736Z,1.10
2023-10-26T10:09:01.813Z,1.00
2023-10-26T10:11:29.674Z,1.40
2023-10-26T10:14:11.602Z,1.40
2023-10-26T10:17:06.721Z,1.10
2023-10-26T10:20:17.938Z,1.10
2023-10-26T10:23:05.252Z,0.90
2023-10-26T10:26:08.293Z,0.90
2023-10-26T10:29:00.342Z,1.30
2023-10-26T10:31:54.168Z,1.40
2023-10-26T10:34:34.636Z,1.20
2023-10-26T10:37:27.567Z,1.10
2023-10-26T10:40:15.813Z,1.30
2023-10-26T10:42:52.868Z,1.40
2023-10-26T10:45:21.556Z,1.00
2023-10-26T10:47:49.100Z,0.70
2023-10-26T10:50:24.333Z,0.80
2023-10-26T10:52:58.715Z,0.60
2023-10-26T10:55:34.961Z,0.70
2023-10-26T10:58:10.087Z,0.50
2023-10-26T11:00:50.620Z,0.60
2023-10-26T11:03:20.444Z,0.70
2023-10-26T11:05:50.960Z,0.60
2023-10-26T11:08:20.351Z,0.60
2023-10-26T11:10:52.070Z,0.70
2023-10-26T11:13:22.321Z,0.60
2023-10-26T11:16:15.626Z,0.70
2023-10-26T11:18:51.289Z,0.70
2023-10-26T11:21:19.287Z,0.60
2023-10-26T11:23:51.950Z,0.60
2023-10-26T11:26:21.215Z,0.80
2023-10-26T11:29:04.720Z,0.80
2023-10-26T11:31:43.802Z,0.80
2023-10-26T11:34:30.407Z,0.90
2023-10-26T11:37:10.796Z,0.90
2023-10-26T11:39:50.679Z,0.80
2023-10-26T11:42:18.671Z,1.00
2023-10-26T11:44:58.199Z,0.80
2023-10-26T11:47:26.475Z,0.90
2023-10-26T11:49:54.852Z,0.80
2023-10-26T11:52:23.988Z,1.10
2023-10-26T11:55:01.614Z,0.60
2023-10-26T11:57:33.443Z,0.70
2023-10-26T12:00:07.092Z,0.80
2023-10-26T12:02:45.666Z,0.80
2023-10-26T12:05:24.097Z,1.10
2023-10-26T12:08:18.302Z,0.70
2023-10-26T12:10:51.229Z,1.00
2023-10-26T12:13:25.223Z,1.10
2023-10-26T12:15:54.285Z,0.90
2023-10-26T12:18:30.322Z,0.70
2023-10-26T12:21:21.150Z,0.90
2023-10-26T12:24:20.625Z,1.00
2023-10-26T12:26:59.972Z,0.80
2023-10-26T12:29:32.888Z,0.80
2023-10-26T12:32:00.730Z,0.60
2023-10-26T12:34:28.359Z,0.90
2023-10-26T12:36:55.948Z,0.70
2023-10-26T12:39:23.412Z,1.00
2023-10-26T12:41:51.548Z,0.90
2023-10-26T12:44:22.092Z,0.80
2023-10-26T12:46:54.363Z,1.10
2023-10-26T12:49:22.550Z,1.10
2023-10-26T12:51:52.286Z,1.20
2023-10-26T12:54:19.869Z,1.30
2023-10-26T12:56:47.292Z,0.80
2023-10-26T12:59:14.809Z,0.80
2023-10-26T13:01:42.356Z,0.80
2023-10-26T13:04:09.949Z,0.90
2023-10-26T13:06:49.443Z,0.80
2023-10-26T13:09:46.183Z,1.40
2023-10-26T13:12:14.523Z,0.90
2023-10-26T13:14:42.213Z,1.10
2023-10-26T13:17:10.307Z,0.80
2023-10-26T13:19:37.868Z,1.00
2023-10-26T13:22:06.371Z,0.90
2023-10-26T13:24:34.876Z,1.20
2023-10-26T13:27:02.492Z,0.90
2023-10-26T13:29:29.947Z,1.00
2023-10-26T13:31:58.629Z,1.20
2023-10-26T13:34:26.211Z,1.00
2023-10-26T13:36:53.879Z,1.50
2023-10-26T13:39:22.207Z,1.90
2023-10-26T13:41:50.332Z,2.00
2023-10-26T13:44:17.866Z,1.60
2023-10-26T13:46:45.437Z,1.70
2023-10-26T13:49:13.329Z,1.40
2023-10-26T13:51:40.858Z,1.20
2023-10-26T13:54:08.410Z,1.40
2023-10-26T13:56:35.932Z,1.60
2023-10-26T13:59:04.232Z,1.50
2023-10-26T14:01:32.414Z,1.10
2023-10-26T14:04:00.289Z,1.40
2023-10-26T14:06:27.828Z,1.50
2023-10-26T14:08:59.087Z,1.30
2023-10-26T14:11:35.057Z,2.70
2023-10-26T14:14:13.390Z,3.90
2023-10-26T14:16:43.652Z,2.90
2023-10-26T14:19:15.230Z,2.30
2023-10-26T14:21:55.302Z,3.10
2023-10-26T14:24:23.785Z,1.60
2023-10-26T14:26:51.250Z,1.60
2023-10-26T14:29:18.912Z,1.60
2023-10-26T14:32:05.138Z,1.70
2023-10-26T14:34:49.132Z,1.50
2023-10-26T14:37:17.431Z,1.40
2023-10-26T14:40:04.205Z,1.40
2023-10-26T14:42:45.349Z,1.80
2023-10-26T14:45:29.339Z,2.20
2023-10-26T14:52:16.403Z,1.60
2023-10-26T14:55:35.021Z,1.70
2023-10-26T14:58:42.138Z,1.70
2023-10-26T15:01:16.879Z,1.30
2023-10-26T15:03:44.444Z,1.60
2023-10-26T15:06:12.155Z,1.30
2023-10-26T15:08:39.702Z,1.60
2023-10-26T15:11:24.363Z,2.00
2023-10-26T15:13:57.758Z,1.90
2023-10-26T15:16:35.477Z,1.60
2023-10-26T15:19:08.259Z,1.70
2023-10-26T15:21:37.205Z,1.60
2023-10-26T15:24:05.774Z,1.50
2023-10-26T15:26:54.468Z,1.80
2023-10-26T15:29:48.793Z,1.80
2023-10-26T15:32:37.116Z,1.40
2023-10-26T15:35:38.075Z,2.00
2023-10-26T15:38:21.610Z,1.70
2023-10-26T15:45:50.732Z,2.60
2023-10-26T15:52:15.373Z,1.90
2023-10-26T15:55:28.201Z,2.00
2023-10-26T15:58:02.585Z,2.00
2023-10-26T16:04:58.663Z,1.80
2023-10-26T16:07:44.623Z,1.80
2023-10-26T16:10:44.666Z,1.50
2023-10-26T16:13:38.586Z,1.90
2023-10-26T16:16:28.105Z,1.70
2023-10-26T16:19:07.715Z,2.90
2023-10-26T16:21:35.475Z,2.90
2023-10-26T16:24:03.244Z,3.40
2023-10-26T16:26:35.747Z,3.00
2023-10-26T16:29:08.904Z,2.90
2023-10-26T16:31:38.045Z,4.30
2023-10-26T16:34:12.177Z,3.60
2023-10-26T16:36:43.031Z,4.00
2023-10-26T16:39:12.302Z,3.10
2023-10-26T16:41:40.816Z,2.60
2023-10-26T16:44:09.030Z,2.90
2023-10-26T16:46:37.210Z,2.80
2023-10-26T16:49:08.839Z,3.20
2023-10-26T16:52:00.740Z,3.40
2023-10-26T16:54:36.710Z,3.20
2023-10-26T16:57:08.541Z,3.60
2023-10-26T16:59:46.277Z,3.70
2023-10-26T17:02:15.280Z,3.70
2023-10-26T17:04:43.599Z,4.40
2023-10-26T17:07:12.818Z,3.50
2023-10-26T17:09:42.545Z,3.10
2023-10-26T17:12:12.179Z,3.40
2023-10-26T17:14:53.155Z,3.50
2023-10-26T17:17:28.397Z,3.40
2023-10-26T17:19:57.259Z,4.10
2023-10-26T17:22:31.477Z,3.70
2023-10-26T17:25:00.664Z,3.60
2023-10-26T17:27:29.579Z,3.40
2023-10-26T17:29:59.575Z,3.10
2023-10-26T17:32:28.659Z,2.80
2023-10-26T17:34:58.414Z,4.10
2023-10-26T17:37:27.893Z,4.70
2023-10-26T17:39:55.835Z,5.00
2023-10-26T17:42:25.634Z,5.90
2023-10-26T17:44:59.257Z,6.30
2023-10-26T17:47:29.440Z,5.80
2023-10-26T17:50:00.003Z,7.10
2023-10-26T17:52:29.131Z,5.80
2023-10-26T17:55:02.872Z,5.90
2023-10-26T17:57:33.407Z,6.00
2023-10-26T18:00:06.608Z,6.70
2023-10-26T18:02:41.223Z,7.20
2023-10-26T18:05:12.768Z,6.70
2023-10-26T18:07:43.310Z,7.90
2023-10-26T18:10:15.720Z,8.30
2023-10-26T18:12:46.249Z,6.60
2023-10-26T18:15:16.020Z,7.60
2023-10-26T18:17:46.825Z,6.80
2023-10-26T18:20:16.799Z,7.50
2023-10-26T18:22:47.278Z,7.60
2023-10-26T18:25:18.644Z,8.30
2023-10-26T18:27:48.529Z,9.50
2023-10-26T18:30:17.931Z,11.90
2023-10-26T18:32:47.559Z,14.00
2023-10-26T18:35:18.559Z,16.40
2023-10-26T18:37:48.001Z,17.20
2023-10-26T18:40:16.277Z,14.80
2023-10-26T18:42:46.320Z,15.20
2023-10-26T18:45:14.972Z,12.10
2023-10-26T18:47:45.002Z,9.50
2023-10-26T18:50:14.118Z,9.60
2023-10-26T18:52:46.427Z,8.70
2023-10-26T18:55:16.714Z,10.20
2023-10-26T18:57:47.526Z,9.50
2023-10-26T19:00:19.524Z,9.70
2023-10-26T19:02:49.263Z,7.50
2023-10-26T19:05:21.160Z,7.60
2023-10-26T19:07:50.470Z,8.10
2023-10-26T19:10:20.725Z,6.80
2023-10-26T19:12:55.960Z,6.30
2023-10-26T19:15:27.858Z,7.60
2023-10-26T19:18:00.940Z,6.50
2023-10-26T19:20:37.754Z,5.50
2023-10-26T19:23:10.959Z,4.80
2023-10-26T19:25:42.661Z,5.70
2023-10-26T19:28:12.774Z,5.20
2023-10-26T19:30:43.849Z,5.30
2023-10-26T19:33:14.378Z,6.20
2023-10-26T19:35:44.896Z,5.80
2023-10-26T19:38:18.593Z,6.60
2023-10-26T19:40:49.000Z,6.90
2023-10-26T19:43:18.934Z,7.00
2023-10-26T19:45:48.156Z,7.90
2023-10-26T19:48:18.611Z,7.90
2023-10-26T19:50:50.655Z,7.00
2023-10-26T19:53:20.589Z,6.70
2023-10-26T19:55:51.395Z,6.70
2023-10-26T19:58:21.481Z,7.40
2023-10-26T20:00:53.695Z,9.00
2023-10-26T20:03:26.046Z,9.60
2023-10-26T20:05:55.405Z,10.10
2023-10-26T20:08:27.287Z,10.10
2023-10-26T20:10:58.522Z,13.40
2023-10-26T20:13:27.232Z,12.20
2023-10-26T20:15:59.873Z,11.40
2023-10-26T20:18:40.017Z,10.50
2023-10-26T20:21:10.680Z,10.30
2023-10-26T20:23:40.993Z,11.00
2023-10-26T20:26:14.417Z,9.50
2023-10-26T20:28:55.232Z,8.90
2023-10-26T20:31:36.676Z,9.30
2023-10-26T20:34:21.354Z,9.00
2023-10-26T20:37:00.356Z,7.70
2023-10-26T20:39:42.076Z,8.20
2023-10-26T20:42:15.571Z,7.50
2023-10-26T20:44:48.951Z,7.30
2023-10-26T20:47:21.123Z,7.30
2023-10-26T20:49:56.189Z,6.50
2023-10-26T20:52:25.294Z,7.20
2023-10-26T20:54:56.092Z,6.30
2023-10-26T20:57:25.045Z,6.80
2023-10-26T20:59:54.394Z,9.20
2023-10-26T21:02:26.032Z,7.60
2023-10-26T21:05:00.541Z,7.20
2023-10-26T21:07:31.687Z,7.40
2023-10-26T21:10:04.034Z,7.40
2023-10-26T21:12:35.688Z,7.20
2023-10-26T21:15:05.267Z,8.30
2023-10-26T21:17:34.690Z,8.90
2023-10-26T21:20:08.533Z,7.20
2023-10-26T21:22:37.331Z,8.40
2023-10-26T21:25:05.924Z,7.90
2023-10-26T21:27:35.574Z,7.00
2023-10-26T21:30:04.353Z,8.70
2023-10-26T21:32:33.145Z,7.60
2023-10-26T21:35:01.892Z,7.90
2023-10-26T21:37:29.915Z,7.50
2023-10-26T21:39:57.947Z,8.30
2023-10-26T21:42:27.099Z,8.00
2023-10-26T21:44:57.787Z,7.10
2023-10-26T21:47:29.078Z,7.80
2023-10-26T21:49:58.348Z,7.00
2023-10-26T21:52:27.161Z,5.00
2023-10-26T21:54:58.344Z,5.70
2023-10-26T21:57:29.529Z,5.60
